Time;durP1;ratioP1;P1;durP2;ratioP2;P2;SDS_P1;SDS_P2;PMS_P1;PMS_P2;Temp;Humidity;BMP_temperature;BMP_pressure;BME280_temperature;BME280_humidity;BME280_pressure;Samples;Min_cycle;Max_cycle;Signal;HPM_P1;HPM_P2
2021/10/04 00:01:35;;;;;;;12.10;10.00;;;;;;;11.97;75.42;100624.83;94165;1195;99011;-63
2021/10/04 00:03:39;;;;;;;12.20;10.10;;;;;;;11.95;75.44;100620.55;94156;1195;86938;-63
2021/10/04 00:05:46;;;;;;;14.10;9.90;;;;;;;11.94;75.54;100618.58;94082;1196;95255;-64
2021/10/04 00:07:54;;;;;;;13.00;8.90;;;;;;;11.92;75.63;100623.64;94202;1195;80081;-62
2021/10/04 00:09:58;;;;;;;12.30;9.50;;;;;;;11.90;75.63;100622.29;93684;1196;81278;-68
2021/10/04 00:12:02;;;;;;;11.60;9.60;;;;;;;11.90;75.69;100626.08;94136;1196;98264;-68
2021/10/04 00:14:07;;;;;;;15.10;10.40;;;;;;;11.90;75.74;100623.86;93832;1195;87760;-69
2021/10/04 00:16:11;;;;;;;13.90;9.60;;;;;;;11.92;75.78;100624.20;94161;1196;94191;-69
2021/10/04 00:18:16;;;;;;;16.80;10.00;;;;;;;11.93;75.77;100622.27;94106;1196;79674;-69
2021/10/04 00:20:21;;;;;;;12.80;9.80;;;;;;;11.95;75.82;100621.14;94221;1195;80906;-62
2021/10/04 00:22:25;;;;;;;12.80;9.80;;;;;;;11.97;75.91;100623.95;94180;1195;98161;-63
2021/10/04 00:24:29;;;;;;;13.20;9.80;;;;;;;11.98;76.17;100621.08;94113;1195;87157;-64
2021/10/04 00:26:34;;;;;;;12.90;10.40;;;;;;;12.00;76.06;100619.23;94110;1196;92784;-63
2021/10/04 00:28:38;;;;;;;12.90;9.50;;;;;;;12.02;75.98;100621.49;94118;1195;81339;-63
2021/10/04 00:30:42;;;;;;;14.20;9.70;;;;;;;12.03;75.88;100619.52;94138;1190;81814;-63
2021/10/04 00:32:50;;;;;;;12.20;8.90;;;;;;;12.04;75.90;100618.08;94130;1196;98807;-64
2021/10/04 00:34:57;;;;;;;12.40;9.80;;;;;;;12.04;75.95;100623.15;94192;1195;87495;-68
2021/10/04 00:37:01;;;;;;;14.90;10.10;;;;;;;12.03;75.91;100621.09;94125;1196;93280;-68
2021/10/04 00:39:06;;;;;;;12.90;9.70;;;;;;;12.04;75.96;100619.19;94153;1195;80266;-68
2021/10/04 00:41:10;;;;;;;15.90;10.50;;;;;;;12.06;75.95;100614.33;94163;1195;80839;-68
2021/10/04 00:43:14;;;;;;;14.60;9.70;;;;;;;12.05;76.04;100614.33;94192;1195;99288;-62
2021/10/04 00:45:19;;;;;;;14.90;9.80;;;;;;;12.06;76.01;100609.70;94120;1195;87156;-63
2021/10/04 00:47:23;;;;;;;11.60;8.80;;;;;;;12.06;75.91;100605.93;94152;1195;93848;-63
2021/10/04 00:49:28;;;;;;;11.50;8.80;;;;;;;12.06;75.92;100607.59;94130;1195;81216;-63
2021/10/04 00:51:33;;;;;;;15.80;10.20;;;;;;;12.04;75.98;100606.56;94136;1195;81105;-67
2021/10/04 00:53:37;;;;;;;12.80;10.20;;;;;;;12.04;75.99;100607.65;94115;1195;99306;-63
2021/10/04 00:55:44;;;;;;;14.50;10.30;;;;;;;12.03;76.00;100607.97;94139;1195;87950;-63
2021/10/04 00:57:49;;;;;;;13.00;9.70;;;;;;;12.02;75.94;100605.41;94135;1195;94944;-63
2021/10/04 00:59:53;;;;;;;11.70;8.80;;;;;;;12.00;75.89;100605.23;94163;1195;80184;-67
2021/10/04 01:01:58;;;;;;;12.70;9.30;;;;;;;11.99;76.03;100603.02;94186;1195;79916;-68
2021/10/04 01:04:05;;;;;;;12.40;9.50;;;;;;;11.97;76.03;100599.20;94142;1195;99479;-69
2021/10/04 01:06:09;;;;;;;10.80;9.20;;;;;;;11.95;76.20;100602.89;94140;1195;85990;-69
2021/10/04 01:08:16;;;;;;;13.30;9.40;;;;;;;11.95;76.16;100602.30;94114;1195;93868;-67
2021/10/04 01:10:26;;;;;;;11.40;8.40;;;;;;;11.95;76.27;100600.40;93781;1196;80972;-67
2021/10/04 01:12:31;;;;;;;11.70;9.50;;;;;;;11.97;76.24;100599.58;94201;1195;80476;-70
2021/10/04 01:14:35;;;;;;;12.90;9.30;;;;;;;12.01;76.24;100603.73;94072;1195;98158;-69
2021/10/04 01:16:39;;;;;;;11.80;9.60;;;;;;;12.04;76.34;100598.08;94150;1196;87493;-63
2021/10/04 01:18:43;;;;;;;12.60;10.40;;;;;;;12.08;76.22;100600.65;94151;1195;94204;-62
2021/10/04 01:20:48;;;;;;;11.40;8.80;;;;;;;12.08;76.25;100597.33;94104;1195;81875;-64
2021/10/04 01:22:53;;;;;;;13.30;9.30;;;;;;;12.11;76.38;100594.13;94166;1195;80056;-68
2021/10/04 01:25:00;;;;;;;15.10;9.90;;;;;;;12.12;76.35;100596.31;94172;1195;97886;-66
2021/10/04 01:27:09;;;;;;;13.00;9.20;;;;;;;12.16;76.27;100596.47;94098;1195;87527;-63
2021/10/04 01:29:18;;;;;;;12.30;10.00;;;;;;;12.20;76.33;100596.55;94134;1195;93815;-63
2021/10/04 01:31:23;;;;;;;13.10;9.70;;;;;;;12.22;76.21;100594.15;94108;1196;80734;-68
2021/10/04 01:33:27;;;;;;;13.80;9.10;;;;;;;12.25;76.18;100597.84;94178;1195;80758;-63
2021/10/04 01:35:32;;;;;;;14.80;9.90;;;;;;;12.28;76.20;100600.20;94148;1196;100172;-63
2021/10/04 01:37:36;;;;;;;14.70;10.10;;;;;;;12.29;76.15;100593.92;94114;1195;86587;-67
2021/10/04 01:39:40;;;;;;;12.40;9.50;;;;;;;12.31;76.10;100595.10;94121;1195;93879;-68
2021/10/04 01:41:44;;;;;;;15.30;9.10;;;;;;;12.32;76.10;100596.75;94150;1189;80643;-63
2021/10/04 01:43:49;;;;;;;14.40;9.60;;;;;;;12.33;76.12;100595.55;94146;1195;81846;-62
2021/10/04 01:45:55;;;;;;;12.90;9.70;;;;;;;12.36;76.00;100596.27;94166;1195;100360;-69
2021/10/04 01:48:00;;;;;;;11.90;9.40;;;;;;;12.37;76.06;100594.56;94166;1195;86362;-63
2021/10/04 01:50:07;;;;;;;11.60;9.90;;;;;;;12.39;76.02;100594.08;94133;1195;94387;-66
2021/10/04 01:52:12;;;;;;;13.00;10.30;;;;;;;12.40;75.96;100595.05;94092;1195;78429;-68
2021/10/04 01:54:16;;;;;;;13.00;9.50;;;;;;;12.40;75.94;100595.21;94103;1195;80206;-68
2021/10/04 01:56:21;;;;;;;11.50;8.80;;;;;;;12.42;75.83;100592.45;94117;1195;99365;-63
2021/10/04 01:58:25;;;;;;;11.90;8.70;;;;;;;12.42;75.90;100591.32;94141;1195;88065;-68
2021/10/04 02:00:29;;;;;;;13.90;9.20;;;;;;;12.42;75.90;100592.98;94119;1196;92745;-67
2021/10/04 02:02:34;;;;;;;14.10;9.00;;;;;;;12.44;75.95;100594.54;94144;1195;79779;-65
2021/10/04 02:04:38;;;;;;;14.00;9.50;;;;;;;12.45;75.87;100594.96;94161;1195;82477;-63
2021/10/04 02:06:49;;;;;;;14.40;10.00;;;;;;;12.45;75.92;100592.59;94123;1195;98048;-69
2021/10/04 02:08:54;;;;;;;13.40;9.80;;;;;;;12.46;75.79;100595.02;94088;1195;86957;-67
2021/10/04 02:10:58;;;;;;;14.30;9.70;;;;;;;12.47;75.77;100593.86;94061;1195;94013;-62
2021/10/04 02:13:08;;;;;;;12.10;9.10;;;;;;;12.49;75.80;100591.11;94134;1196;78577;-64
2021/10/04 02:15:16;;;;;;;12.40;9.30;;;;;;;12.50;75.77;100593.42;94149;1195;81165;-65
2021/10/04 02:17:20;;;;;;;11.10;9.50;;;;;;;12.52;75.80;100589.60;94120;1195;99067;-67
2021/10/04 02:19:24;;;;;;;11.50;9.20;;;;;;;12.52;75.74;100591.19;94081;1195;87385;-69
2021/10/04 02:21:28;;;;;;;11.00;9.10;;;;;;;12.53;75.70;100594.52;94155;1195;93973;-68
2021/10/04 02:23:35;;;;;;;13.60;9.00;;;;;;;12.53;75.60;100589.93;94159;1195;79889;-68
2021/10/04 02:25:43;;;;;;;11.20;9.50;;;;;;;12.54;75.65;100588.73;94140;1196;82504;-67
2021/10/04 02:27:50;;;;;;;13.40;9.80;;;;;;;12.54;75.62;100588.91;94120;1195;99672;-67
2021/10/04 02:29:58;;;;;;;10.80;8.20;;;;;;;12.54;75.62;100590.91;94158;1195;86388;-62
2021/10/04 02:32:04;;;;;;;10.30;8.60;;;;;;;12.53;75.67;100593.81;94095;1195;94524;-66
2021/10/04 02:34:08;;;;;;;14.00;8.90;;;;;;;12.53;75.61;100595.60;94175;1195;78151;-69
2021/10/04 02:36:13;;;;;;;11.10;9.10;;;;;;;12.53;75.64;100595.19;94139;1196;81642;-69
2021/10/04 02:38:17;;;;;;;11.20;8.70;;;;;;;12.57;75.59;100591.42;94129;1195;99037;-68
2021/10/04 02:40:22;;;;;;;13.00;9.70;;;;;;;12.57;75.59;100593.23;94115;1195;87304;-61
2021/10/04 02:42:30;;;;;;;12.60;9.10;;;;;;;12.57;75.55;100597.95;94129;1196;92917;-69
2021/10/04 02:44:36;;;;;;;11.10;8.30;;;;;;;12.58;75.55;100590.06;94070;1195;81005;-67
2021/10/04 02:46:40;;;;;;;13.20;9.20;;;;;;;12.57;75.52;100594.27;94113;1196;82103;-69
2021/10/04 02:48:45;;;;;;;13.60;9.20;;;;;;;12.58;75.56;100595.39;94088;1196;100441;-63
2021/10/04 02:50:49;;;;;;;12.90;9.90;;;;;;;12.59;75.58;100595.11;94150;1190;88297;-68
2021/10/04 02:52:53;;;;;;;13.40;9.30;;;;;;;12.60;75.55;100591.83;94089;1195;93477;-69
2021/10/04 02:54:58;;;;;;;10.60;8.30;;;;;;;12.58;75.55;100594.73;94125;1195;79639;-63
2021/10/04 02:57:03;;;;;;;13.00;8.50;;;;;;;12.57;75.55;100599.52;94129;1196;80794;-63
2021/10/04 02:59:11;;;;;;;11.30;9.30;;;;;;;12.59;75.55;100599.52;94153;1195;99444;-63
2021/10/04 03:01:15;;;;;;;13.00;9.20;;;;;;;12.59;75.47;100598.92;94153;1195;86861;-69
2021/10/04 03:03:19;;;;;;;14.70;10.30;;;;;;;12.61;75.41;100601.34;94159;1196;94540;-68
2021/10/04 03:05:23;;;;;;;13.00;8.90;;;;;;;12.61;75.52;100605.52;94185;1195;80383;-64
2021/10/04 03:07:28;;;;;;;10.90;9.30;;;;;;;12.61;75.46;100608.02;94123;1195;80536;-68
2021/10/04 03:09:32;;;;;;;12.70;9.00;;;;;;;12.61;75.45;100601.52;94157;1195;99962;-69
2021/10/04 03:11:36;;;;;;;12.50;9.10;;;;;;;12.61;75.54;100596.45;94128;1196;88101;-68
2021/10/04 03:13:40;;;;;;;11.90;9.40;;;;;;;12.61;75.47;100595.17;94115;1196;94581;-69
2021/10/04 03:15:44;;;;;;;12.80;8.90;;;;;;;12.63;75.47;100597.69;94136;1195;79297;-70
2021/10/04 03:17:48;;;;;;;11.30;9.30;;;;;;;12.65;75.41;100599.20;94105;1195;82451;-63
2021/10/04 03:19:56;;;;;;;12.40;9.20;;;;;;;12.65;75.45;100593.58;94136;1196;99403;-63
2021/10/04 03:22:05;;;;;;;11.70;9.00;;;;;;;12.66;75.44;100593.58;94080;1196;87627;-63
2021/10/04 03:24:10;;;;;;;9.90;8.70;;;;;;;12.65;75.43;100590.16;94160;1195;93152;-63
2021/10/04 03:26:14;;;;;;;13.10;9.10;;;;;;;12.66;75.47;100584.69;94125;1196;79751;-69
2021/10/04 03:28:20;;;;;;;11.90;8.80;;;;;;;12.66;75.53;100585.95;94115;1195;82286;-69
2021/10/04 03:30:27;;;;;;;14.70;9.20;;;;;;;12.65;75.47;100586.94;94103;1195;97971;-63
2021/10/04 03:32:31;;;;;;;12.30;8.60;;;;;;;12.64;75.47;100586.38;94037;1195;87122;-64
2021/10/04 03:34:36;;;;;;;11.50;8.70;;;;;;;12.63;75.48;100592.30;94114;1196;94236;-63
2021/10/04 03:36:41;;;;;;;11.40;8.40;;;;;;;12.64;75.48;100590.02;94054;1195;80026;-63
2021/10/04 03:38:47;;;;;;;10.30;8.50;;;;;;;12.64;75.50;100589.09;94101;1195;81072;-63
2021/10/04 03:40:51;;;;;;;11.20;8.60;;;;;;;12.64;75.54;100587.77;94069;1195;98681;-70
2021/10/04 03:42:56;;;;;;;11.60;9.10;;;;;;;12.63;75.48;100587.72;94114;1195;86973;-69
2021/10/04 03:45:00;;;;;;;11.90;9.10;;;;;;;12.63;75.53;100587.39;94077;1195;94682;-70
2021/10/04 03:47:07;;;;;;;14.50;8.50;;;;;;;12.64;75.53;100585.52;93645;1196;80269;-65
2021/10/04 03:49:11;;;;;;;11.30;8.90;;;;;;;12.65;75.43;100585.32;94119;1196;81551;-66
2021/10/04 03:51:16;;;;;;;11.00;8.50;;;;;;;12.65;75.48;100583.44;94045;1180;98267;-69
2021/10/04 03:53:20;;;;;;;14.80;8.80;;;;;;;12.67;75.56;100584.63;94077;1196;85715;-69
2021/10/04 03:55:24;;;;;;;12.00;8.60;;;;;;;12.68;75.48;100586.17;94081;1195;94373;-64
2021/10/04 03:57:29;;;;;;;13.80;8.80;;;;;;;12.68;75.44;100585.66;94090;1195;79525;-68
2021/10/04 03:59:33;;;;;;;11.10;8.40;;;;;;;12.68;75.44;100585.34;94084;1196;82422;-73
2021/10/04 04:01:40;;;;;;;11.90;9.10;;;;;;;12.70;75.43;100586.48;94065;1180;99477;-69
2021/10/04 04:03:44;;;;;;;10.50;8.50;;;;;;;12.72;75.38;100585.98;94103;1195;86913;-72
2021/10/04 04:05:48;;;;;;;10.70;8.40;;;;;;;12.73;75.37;100588.04;94051;1195;94165;-68
2021/10/04 04:07:53;;;;;;;12.90;8.40;;;;;;;12.73;75.39;100584.33;94063;1196;78696;-68
2021/10/04 04:09:58;;;;;;;14.20;8.80;;;;;;;12.70;75.31;100585.31;94111;1195;82034;-68
2021/10/04 04:12:03;;;;;;;11.40;8.00;;;;;;;12.71;75.27;100590.14;94088;1195;100219;-68
2021/10/04 04:14:10;;;;;;;11.60;8.60;;;;;;;12.70;75.23;100586.09;94115;1196;87903;-69
2021/10/04 04:16:14;;;;;;;11.80;7.80;;;;;;;12.68;75.24;100592.09;94083;1195;91962;-68
2021/10/04 04:18:18;;;;;;;13.50;8.90;;;;;;;12.65;75.31;100591.78;94117;1196;79011;-68
2021/10/04 04:20:22;;;;;;;14.30;9.20;;;;;;;12.62;75.17;100594.42;94083;1195;80190;-71
2021/10/04 04:22:29;;;;;;;11.10;9.10;;;;;;;12.57;75.17;100594.89;94130;1196;98058;-74
2021/10/04 04:24:37;;;;;;;9.20;8.10;;;;;;;12.52;75.14;100595.48;94111;1195;87510;-72
2021/10/04 04:26:41;;;;;;;16.60;9.10;;;;;;;12.47;75.23;100594.02;94150;1195;93666;-68
2021/10/04 04:28:48;;;;;;;12.80;9.10;;;;;;;12.41;75.22;100593.56;94094;1195;79670;-67
2021/10/04 04:30:52;;;;;;;12.70;8.30;;;;;;;12.36;75.33;100594.61;94112;1195;80706;-68
2021/10/04 04:32:56;;;;;;;10.90;8.10;;;;;;;12.31;75.43;100592.09;94084;1195;100173;-68
2021/10/04 04:35:05;;;;;;;9.90;8.50;;;;;;;12.26;75.49;100594.55;94108;1195;87338;-72
2021/10/04 04:37:09;;;;;;;13.10;8.50;;;;;;;12.21;75.63;100594.64;94032;1196;93816;-72
2021/10/04 04:39:13;;;;;;;11.10;8.60;;;;;;;12.20;75.68;100598.72;94070;1195;80052;-72
2021/10/04 04:41:18;;;;;;;10.40;8.20;;;;;;;12.18;75.72;100595.20;94098;1195;82104;-68
2021/10/04 04:43:22;;;;;;;11.90;8.80;;;;;;;12.17;75.68;100593.39;94113;1195;97570;-68
2021/10/04 04:45:26;;;;;;;11.70;8.80;;;;;;;12.15;75.80;100592.51;94134;1196;87234;-68
2021/10/04 04:47:33;;;;;;;11.00;7.90;;;;;;;12.14;75.86;100595.33;94065;1195;92811;-69
2021/10/04 04:49:37;;;;;;;13.20;8.70;;;;;;;12.12;75.85;100595.80;94115;1196;78638;-68
2021/10/04 04:51:41;;;;;;;10.10;8.20;;;;;;;12.12;75.87;100591.48;94067;1195;80586;-72
2021/10/04 04:53:46;;;;;;;11.00;8.40;;;;;;;12.11;75.99;100590.89;94138;1195;98920;-72
2021/10/04 04:55:50;;;;;;;12.00;9.30;;;;;;;12.09;76.02;100592.15;94090;1195;86272;-73
2021/10/04 04:57:54;;;;;;;11.10;8.30;;;;;;;12.07;76.07;100589.86;94074;1195;94760;-71
2021/10/04 04:59:58;;;;;;;11.70;8.70;;;;;;;12.06;76.01;100587.84;94057;1196;80614;-68
2021/10/04 05:02:03;;;;;;;12.20;9.20;;;;;;;12.06;76.11;100592.09;94153;1195;81763;-69
2021/10/04 05:04:10;;;;;;;11.00;8.60;;;;;;;12.06;76.18;100594.76;94077;1195;99923;-71
2021/10/04 05:06:14;;;;;;;10.60;8.80;;;;;;;12.06;76.30;100594.41;94128;1196;87400;-72
2021/10/04 05:08:22;;;;;;;12.20;8.00;;;;;;;12.07;76.21;100597.31;94124;1195;94029;-72
2021/10/04 05:10:26;;;;;;;10.70;7.80;;;;;;;12.07;76.30;100598.05;94083;1195;80401;-72
2021/10/04 05:12:30;;;;;;;11.40;9.40;;;;;;;12.10;76.29;100601.25;94141;1195;80857;-73
2021/10/04 05:14:34;;;;;;;12.20;8.70;;;;;;;12.17;76.32;100604.02;94131;1195;98726;-73
2021/10/04 05:16:39;;;;;;;9.00;8.00;;;;;;;12.25;76.35;100607.46;94109;1196;87867;-67
2021/10/04 05:18:43;;;;;;;11.70;8.70;;;;;;;12.32;76.29;100609.65;94096;1195;94928;-68
2021/10/04 05:20:48;;;;;;;11.70;8.90;;;;;;;12.35;76.28;100609.55;94119;1195;81617;-67
2021/10/04 05:22:52;;;;;;;10.20;8.30;;;;;;;12.39;76.23;100609.21;94108;1195;80278;-66
2021/10/04 05:24:57;;;;;;;12.10;8.70;;;;;;;12.43;76.25;100607.63;94128;1195;99618;-73
2021/10/04 05:27:01;;;;;;;11.30;8.70;;;;;;;12.49;76.14;100609.05;94094;1195;86727;-72
2021/10/04 05:29:09;;;;;;;10.40;8.50;;;;;;;12.56;76.07;100611.27;94082;1196;94280;-74
2021/10/04 05:31:16;;;;;;;11.30;8.60;;;;;;;12.61;76.08;100614.89;94117;1195;78843;-74
2021/10/04 05:33:23;;;;;;;13.20;8.70;;;;;;;12.63;76.01;100614.37;94108;1195;81583;-72
2021/10/04 05:35:27;;;;;;;11.10;8.70;;;;;;;12.63;75.90;100616.70;94140;1195;98155;-68
2021/10/04 05:37:31;;;;;;;10.20;8.60;;;;;;;12.65;75.78;100618.27;94100;1195;86974;-67
2021/10/04 05:39:36;;;;;;;9.80;8.40;;;;;;;12.68;75.77;100620.73;94075;1195;94937;-67
2021/10/04 05:41:40;;;;;;;12.30;8.90;;;;;;;12.69;75.81;100615.91;94038;1196;80066;-72
2021/10/04 05:43:47;;;;;;;10.80;9.60;;;;;;;12.72;75.72;100611.17;94095;1195;81242;-70
2021/10/04 05:45:51;;;;;;;11.10;8.80;;;;;;;12.75;75.59;100612.49;94055;1196;99344;-67
2021/10/04 05:48:01;;;;;;;12.20;8.20;;;;;;;12.78;75.60;100614.52;94053;1195;88134;-66
2021/10/04 05:50:08;;;;;;;9.50;7.90;;;;;;;12.79;75.55;100610.60;94120;1195;92665;-69
2021/10/04 05:52:15;;;;;;;12.30;8.30;;;;;;;12.80;75.55;100613.61;94035;1195;80936;-66
2021/10/04 05:54:25;;;;;;;11.60;8.90;;;;;;;12.81;75.49;100619.16;94047;1195;80138;-68
2021/10/04 05:56:29;;;;;;;11.80;9.30;;;;;;;12.82;75.44;100619.38;94093;1195;98497;-68
2021/10/04 05:58:33;;;;;;;10.60;8.50;;;;;;;12.82;75.33;100619.27;94031;1195;88566;-69
2021/10/04 06:00:41;;;;;;;10.30;7.90;;;;;;;12.87;75.29;100620.41;94108;1195;93065;-73
2021/10/04 06:02:45;;;;;;;11.70;8.20;;;;;;;12.93;75.20;100622.13;94087;1195;80175;-69
2021/10/04 06:04:49;;;;;;;12.60;8.20;;;;;;;13.05;75.22;100625.91;94080;1196;81141;-64
2021/10/04 06:06:53;;;;;;;11.70;8.00;;;;;;;13.23;75.24;100626.38;94051;1196;98709;-69
2021/10/04 06:08:57;;;;;;;11.20;8.20;;;;;;;13.37;75.04;100622.68;94129;1196;88570;-69
2021/10/04 06:11:01;;;;;;;11.50;8.40;;;;;;;13.49;74.82;100621.33;94063;1196;93857;-71
2021/10/04 06:13:06;;;;;;;10.40;8.40;;;;;;;13.57;74.77;100625.23;94058;1195;79818;-71
2021/10/04 06:15:14;;;;;;;11.80;8.30;;;;;;;13.58;74.53;100619.90;94037;1195;81057;-70
2021/10/04 06:17:18;;;;;;;10.70;7.80;;;;;;;13.58;74.50;100624.61;94087;1196;99940;-71
2021/10/04 06:19:25;;;;;;;9.10;7.60;;;;;;;13.64;74.39;100627.38;94128;1181;86627;-70
2021/10/04 06:21:35;;;;;;;13.80;9.20;;;;;;;13.75;74.32;100625.71;94082;1195;92726;-70
2021/10/04 06:23:39;;;;;;;10.80;9.10;;;;;;;13.78;74.14;100623.85;94038;1195;78413;-70
2021/10/04 06:25:44;;;;;;;12.30;9.10;;;;;;;13.80;74.01;100623.96;94100;1195;80971;-70
2021/10/04 06:27:54;;;;;;;12.70;8.70;;;;;;;13.85;74.07;100625.90;94070;1195;99963;-71
2021/10/04 06:30:03;;;;;;;10.40;8.50;;;;;;;13.96;74.03;100626.60;94129;1196;86436;-67
2021/10/04 06:32:11;;;;;;;15.20;8.00;;;;;;;14.05;73.99;100626.65;94084;1195;92994;-69
2021/10/04 06:34:16;;;;;;;13.00;8.40;;;;;;;14.19;73.56;100628.23;94111;1195;79346;-67
2021/10/04 06:36:23;;;;;;;12.60;9.00;;;;;;;14.30;73.29;100629.21;94065;1180;81079;-68
2021/10/04 06:38:27;;;;;;;10.70;8.10;;;;;;;14.49;73.31;100633.21;94039;1196;99654;-67
2021/10/04 06:40:32;;;;;;;10.70;8.30;;;;;;;14.62;72.96;100630.88;94033;1196;87740;-69
2021/10/04 06:42:37;;;;;;;11.40;9.30;;;;;;;14.79;72.94;100630.32;94060;1196;93852;-70
2021/10/04 06:44:45;;;;;;;11.80;8.10;;;;;;;14.89;72.75;100624.23;94086;1195;79064;-71
2021/10/04 06:46:51;;;;;;;12.20;8.30;;;;;;;14.95;72.39;100626.78;94074;1196;81150;-70
2021/10/04 06:48:55;;;;;;;11.90;8.90;;;;;;;14.93;72.20;100628.70;94016;1195;99481;-66
2021/10/04 06:51:00;;;;;;;10.70;8.60;;;;;;;14.91;71.92;100625.95;94011;1196;86831;-70
2021/10/04 06:53:04;;;;;;;10.00;7.90;;;;;;;14.94;71.87;100630.42;94024;1195;94294;-71
2021/10/04 06:55:11;;;;;;;11.90;8.20;;;;;;;15.00;71.92;100635.93;94061;1195;81688;-67
2021/10/04 06:57:15;;;;;;;11.40;8.70;;;;;;;15.06;71.77;100638.89;93874;1195;80724;-67
2021/10/04 06:59:19;;;;;;;14.40;8.00;;;;;;;15.17;71.71;100638.70;94064;1195;97830;-68
2021/10/04 07:01:24;;;;;;;13.40;9.50;;;;;;;15.34;71.56;100639.90;94077;1196;88061;-68
2021/10/04 07:03:30;;;;;;;11.00;8.70;;;;;;;15.39;71.14;100639.26;94006;1196;94796;-66
2021/10/04 07:05:34;;;;;;;13.40;8.60;;;;;;;15.43;71.17;100637.67;94052;1196;79251;-71
2021/10/04 07:07:39;;;;;;;12.00;8.30;;;;;;;15.54;71.17;100644.43;94056;1196;81042;-72
2021/10/04 07:09:43;;;;;;;12.30;8.70;;;;;;;15.61;70.72;100648.22;94044;1195;98826;-72
2021/10/04 07:11:48;;;;;;;13.60;8.40;;;;;;;15.60;70.23;100649.56;94106;1195;88069;-71
2021/10/04 07:13:53;;;;;;;11.50;8.20;;;;;;;15.63;70.33;100651.35;94049;1195;93349;-71
2021/10/04 07:15:58;;;;;;;11.80;8.90;;;;;;;15.74;70.29;100651.17;94035;1196;79698;-68
2021/10/04 07:18:02;;;;;;;11.20;8.70;;;;;;;15.90;70.24;100652.18;94039;1195;81492;-68
2021/10/04 07:20:09;;;;;;;11.20;8.30;;;;;;;16.10;70.30;100654.97;94075;1195;99005;-68
2021/10/04 07:22:14;;;;;;;13.60;8.30;;;;;;;16.32;70.22;100655.64;94035;1195;86969;-72
2021/10/04 07:24:19;;;;;;;10.70;8.80;;;;;;;16.50;69.73;100658.34;94033;1195;94173;-70
2021/10/04 07:26:24;;;;;;;12.20;8.20;;;;;;;16.61;69.49;100660.67;94035;1196;78448;-73
2021/10/04 07:28:28;;;;;;;11.60;7.90;;;;;;;16.77;69.22;100662.98;94067;1195;80600;-70
2021/10/04 07:30:35;;;;;;;11.50;8.20;;;;;;;16.98;68.95;100666.06;94067;1196;98588;-72
2021/10/04 07:32:39;;;;;;;11.20;7.10;;;;;;;17.27;68.78;100662.91;94039;1196;88115;-71
2021/10/04 07:34:44;;;;;;;13.70;8.00;;;;;;;17.58;68.45;100660.34;94042;1196;94597;-67
2021/10/04 07:36:48;;;;;;;13.10;7.90;;;;;;;17.84;68.18;100661.70;94022;1195;79991;-73
2021/10/04 07:38:55;;;;;;;12.50;8.10;;;;;;;18.27;67.86;100658.83;94040;1196;81409;-70
2021/10/04 07:41:00;;;;;;;12.00;7.90;;;;;;;19.06;67.31;100665.13;94031;1195;98222;-71
2021/10/04 07:43:07;;;;;;;10.20;7.80;;;;;;;19.63;66.18;100666.16;94053;1195;87765;-73
2021/10/04 07:45:13;;;;;;;13.60;7.70;;;;;;;19.82;65.74;100668.98;94039;1195;94902;-71
2021/10/04 07:47:18;;;;;;;9.20;7.00;;;;;;;19.68;64.91;100671.09;94006;1196;78924;-70
2021/10/04 07:49:22;;;;;;;10.90;7.30;;;;;;;19.28;63.88;100671.88;94109;1195;81996;-69
2021/10/04 07:51:26;;;;;;;10.30;7.30;;;;;;;18.95;64.31;100669.67;93990;1195;99018;-66
2021/10/04 07:53:36;;;;;;;10.20;6.90;;;;;;;18.85;64.54;100668.08;94069;1196;87154;-72
2021/10/04 07:55:41;;;;;;;14.30;7.60;;;;;;;18.79;64.20;100671.70;94040;1196;93911;-68
2021/10/04 07:57:48;;;;;;;9.10;6.50;;;;;;;19.43;64.44;100670.52;93997;1195;77976;-66
2021/10/04 07:59:53;;;;;;;14.30;7.20;;;;;;;20.75;63.17;100666.88;94119;1196;81224;-70
2021/10/04 08:01:57;;;;;;;9.90;6.80;;;;;;;22.15;62.18;100668.59;94000;1195;100582;-71
2021/10/04 08:04:01;;;;;;;10.60;6.80;;;;;;;23.28;60.33;100670.36;94079;1195;85642;-71
2021/10/04 08:06:06;;;;;;;11.60;7.10;;;;;;;24.25;58.68;100665.69;94027;1196;94950;-67
2021/10/04 08:08:10;;;;;;;12.20;6.80;;;;;;;25.09;56.94;100669.02;94013;1196;79413;-67
2021/10/04 08:10:15;;;;;;;9.60;7.20;;;;;;;25.59;55.78;100663.46;94050;1196;81290;-70
2021/10/04 08:12:25;;;;;;;7.00;6.30;;;;;;;26.11;54.51;100664.30;94002;1196;99218;-72
2021/10/04 08:14:30;;;;;;;9.60;6.20;;;;;;;26.53;53.47;100660.08;94013;1196;88385;-72
2021/10/04 08:16:34;;;;;;;10.30;6.50;;;;;;;26.71;52.40;100661.64;94022;1195;94458;-68
2021/10/04 08:18:38;;;;;;;8.00;6.50;;;;;;;26.96;51.39;100664.21;94043;1196;79989;-68
2021/10/04 08:20:42;;;;;;;9.60;6.20;;;;;;;27.31;50.78;100667.60;94077;1195;83035;-68
2021/10/04 08:22:46;;;;;;;8.40;6.50;;;;;;;27.38;49.70;100668.75;94077;1195;99229;-71
2021/10/04 08:24:50;;;;;;;8.70;6.60;;;;;;;27.65;49.33;100665.88;94017;1195;87994;-71
2021/10/04 08:26:55;;;;;;;8.80;6.00;;;;;;;27.89;48.83;100669.06;94028;1195;94728;-70
2021/10/04 08:28:59;;;;;;;12.90;5.80;;;;;;;28.09;47.92;100666.88;94018;1195;78591;-71
2021/10/04 08:31:06;;;;;;;9.30;6.20;;;;;;;28.05;47.43;100670.43;94049;1195;82332;-72
2021/10/04 08:33:11;;;;;;;8.50;5.70;;;;;;;27.98;46.72;100669.23;94009;1195;98995;-68
2021/10/04 08:35:20;;;;;;;9.10;5.70;;;;;;;27.35;46.70;100672.00;94012;1196;86106;-68
2021/10/04 08:37:24;;;;;;;8.00;5.50;;;;;;;26.70;47.25;100668.14;94027;1196;95313;-68
2021/10/04 08:39:28;;;;;;;7.70;5.40;;;;;;;26.55;47.55;100665.70;94035;1196;79698;-68
2021/10/04 08:41:34;;;;;;;6.50;5.20;;;;;;;26.60;47.69;100665.67;94036;1196;81265;-68
2021/10/04 08:43:42;;;;;;;9.50;6.40;;;;;;;26.90;47.58;100666.66;94066;1195;99502;-68
2021/10/04 08:45:52;;;;;;;9.10;5.70;;;;;;;27.44;46.75;100670.76;94044;1196;87440;-72
2021/10/04 08:47:58;;;;;;;9.90;6.00;;;;;;;27.86;46.31;100668.16;94060;1196;92536;-71
2021/10/04 08:50:03;;;;;;;9.00;6.40;;;;;;;28.36;45.78;100666.71;94058;1195;79737;-67
2021/10/04 08:52:10;;;;;;;7.50;5.80;;;;;;;28.64;44.85;100666.87;94010;1195;82077;-67
2021/10/04 08:54:15;;;;;;;11.40;5.80;;;;;;;28.75;44.60;100669.86;94027;1196;100014;-67
2021/10/04 08:56:20;;;;;;;7.10;5.60;;;;;;;28.38;44.14;100669.95;94032;1195;88183;-72
2021/10/04 08:58:24;;;;;;;7.50;5.70;;;;;;;27.82;43.99;100672.10;94060;1196;93910;-72
2021/10/04 09:00:32;;;;;;;11.80;5.70;;;;;;;27.41;44.34;100668.52;94017;1196;77883;-68
2021/10/04 09:02:40;;;;;;;7.10;5.40;;;;;;;27.10;44.67;100666.26;94019;1196;82187;-67
2021/10/04 09:05:16;;;;;;;11.10;5.70;;;;;;;26.70;44.86;100669.64;93998;1195;99760;-67
2021/10/04 09:07:21;;;;;;;10.90;6.50;;;;;;;27.08;45.66;100666.16;94056;1196;87413;-67
2021/10/04 09:09:25;;;;;;;7.50;5.60;;;;;;;27.78;45.33;100663.59;94027;1196;94217;-67
2021/10/04 09:11:35;;;;;;;7.30;5.50;;;;;;;28.30;44.54;100660.46;94001;1196;79264;-70
2021/10/04 09:13:40;;;;;;;9.10;5.90;;;;;;;28.63;44.18;100658.82;94027;1195;80599;-71
2021/10/04 09:15:46;;;;;;;8.20;5.70;;;;;;;29.03;43.68;100657.93;94017;1195;99107;-71
2021/10/04 09:17:51;;;;;;;6.40;5.30;;;;;;;29.07;42.93;100656.62;94060;1195;88023;-67
2021/10/04 09:19:55;;;;;;;10.50;5.70;;;;;;;29.13;42.37;100660.47;93981;1196;93140;-66
2021/10/04 09:22:15;;;;;;;8.60;6.00;;;;;;;29.16;42.36;100657.47;94013;1195;79562;-68
2021/10/04 09:24:19;;;;;;;10.30;6.10;;;;;;;29.36;41.92;100653.94;94016;1195;80855;-68
2021/10/04 09:26:36;;;;;;;7.50;6.00;;;;;;;29.56;41.30;100651.86;93997;1195;98737;-72
2021/10/04 09:28:43;;;;;;;6.70;5.00;;;;;;;29.33;41.08;100653.05;94015;1196;86855;-72
2021/10/04 09:30:47;;;;;;;7.50;5.90;;;;;;;29.29;40.59;100649.05;93995;1196;93714;-68
2021/10/04 09:32:59;;;;;;;8.00;5.80;;;;;;;29.10;40.96;100651.39;94014;1196;79227;-68
2021/10/04 09:35:27;;;;;;;7.90;5.80;;;;;;;29.29;40.75;100654.46;94029;1195;80714;-67
2021/10/04 09:37:33;;;;;;;8.60;5.90;;;;;;;29.32;40.44;100655.58;94015;1196;99104;-71